createdAt,value
2019-05-15T00:02:23.426Z,1.23
2019-05-15T00:04:52.282Z,1.03
2019-05-15T00:07:20.808Z,2.93
2019-05-15T00:09:49.368Z,2.40
2019-05-15T00:12:18.885Z,1.53
2019-05-15T00:14:48.447Z,7.33
2019-05-15T00:17:19.183Z,8.80
2019-05-15T00:19:48.583Z,6.40
2019-05-15T00:22:18.343Z,2.00
2019-05-15T00:24:48.839Z,1.90
2019-05-15T00:27:20.016Z,1.50
2019-05-15T00:29:48.671Z,1.80
2019-05-15T00:32:18.638Z,1.50
2019-05-15T00:34:48.810Z,1.50
2019-05-15T00:37:18.212Z,1.40
2019-05-15T00:39:48.594Z,1.30
2019-05-15T00:42:19.008Z,1.20
2019-05-15T00:44:49.395Z,1.20
2019-05-15T00:47:18.214Z,1.50
2019-05-15T00:49:48.806Z,1.30
2019-05-15T00:52:18.083Z,1.20
2019-05-15T00:54:48.421Z,1.23
2019-05-15T00:57:19.055Z,1.70
2019-05-15T00:59:48.359Z,1.20
2019-05-15T01:02:17.893Z,1.53
2019-05-15T01:04:47.981Z,1.50
2019-05-15T01:07:18.793Z,1.33
2019-05-15T01:09:48.730Z,1.60
2019-05-15T01:12:18.452Z,1.00
2019-05-15T01:14:48.970Z,1.20
2019-05-15T01:17:18.450Z,1.47
2019-05-15T01:19:48.211Z,1.37
2019-05-15T01:22:19.327Z,1.20
2019-05-15T01:24:48.556Z,1.30
2019-05-15T01:27:18.401Z,1.23
2019-05-15T01:29:49.374Z,1.50
2019-05-15T01:32:19.057Z,1.43
2019-05-15T01:34:49.013Z,1.60
2019-05-15T01:37:18.874Z,1.20
2019-05-15T01:39:48.558Z,1.37
2019-05-15T01:42:18.587Z,2.10
2019-05-15T01:44:48.470Z,1.53
2019-05-15T01:47:19.012Z,1.47
2019-05-15T01:49:49.092Z,1.40
2019-05-15T01:52:18.699Z,1.03
2019-05-15T01:54:48.899Z,1.17
2019-05-15T01:57:18.153Z,2.03
2019-05-15T01:59:54.772Z,1.70
2019-05-15T02:02:18.678Z,1.63
2019-05-15T02:04:48.648Z,1.40
2019-05-15T02:07:18.694Z,1.10
2019-05-15T02:09:49.210Z,1.57
2019-05-15T02:12:19.144Z,1.10
2019-05-15T02:14:48.572Z,2.20
2019-05-15T02:17:18.959Z,2.60
2019-05-15T02:19:48.513Z,1.83
2019-05-15T02:22:18.923Z,1.60
2019-05-15T02:24:48.296Z,1.50
2019-05-15T02:27:18.604Z,1.60
2019-05-15T02:29:49.287Z,1.60
2019-05-15T02:32:19.321Z,1.37
2019-05-15T02:34:50.078Z,1.30
2019-05-15T02:37:19.221Z,1.43
2019-05-15T02:39:49.620Z,1.30
2019-05-15T02:42:19.207Z,1.23
2019-05-15T02:44:49.965Z,1.37
2019-05-15T02:47:19.915Z,1.30
2019-05-15T02:49:48.824Z,1.50
2019-05-15T02:52:19.902Z,2.93
2019-05-15T02:54:49.874Z,1.57
2019-05-15T02:57:19.225Z,1.63
2019-05-15T02:59:49.880Z,1.77
2019-05-15T03:02:19.118Z,1.50
2019-05-15T03:04:48.610Z,1.67
2019-05-15T03:07:19.299Z,1.60
2019-05-15T03:09:49.679Z,1.27
2019-05-15T03:12:19.553Z,1.50
2019-05-15T03:14:49.136Z,2.00
2019-05-15T03:17:19.049Z,1.80
2019-05-15T03:19:49.834Z,1.37
2019-05-15T03:22:19.501Z,1.80
2019-05-15T03:24:50.241Z,1.60
2019-05-15T03:27:19.720Z,1.30
2019-05-15T03:29:49.417Z,1.40
2019-05-15T03:32:32.170Z,1.40
2019-05-15T03:34:55.649Z,2.00
2019-05-15T03:37:22.166Z,1.70
2019-05-15T03:39:51.720Z,1.53
2019-05-15T03:42:19.370Z,1.90
2019-05-15T03:44:50.274Z,1.37
2019-05-15T03:47:19.453Z,1.77
2019-05-15T03:49:49.430Z,1.50
2019-05-15T03:52:19.144Z,2.00
2019-05-15T03:54:49.553Z,1.43
2019-05-15T03:57:22.675Z,2.80
2019-05-15T03:59:48.944Z,2.13
2019-05-15T04:02:19.399Z,2.23
2019-05-15T04:04:50.241Z,2.50
2019-05-15T04:07:18.958Z,2.07
2019-05-15T04:09:49.375Z,1.73
2019-05-15T04:12:19.595Z,1.87
2019-05-15T04:14:49.991Z,1.70
2019-05-15T04:17:19.764Z,1.70
2019-05-15T04:19:49.668Z,1.73
2019-05-15T04:22:19.757Z,2.00
2019-05-15T04:24:49.601Z,1.60
2019-05-15T04:27:19.746Z,1.50
2019-05-15T04:29:49.201Z,2.17
2019-05-15T04:32:20.001Z,2.37
2019-05-15T04:34:48.908Z,1.87
2019-05-15T04:37:18.994Z,1.60
2019-05-15T04:39:49.141Z,1.90
2019-05-15T04:42:20.295Z,2.57
2019-05-15T04:44:49.529Z,1.70
2019-05-15T04:47:19.222Z,1.57
2019-05-15T04:49:50.435Z,1.60
2019-05-15T04:52:19.460Z,1.80
2019-05-15T04:54:49.343Z,1.50
2019-05-15T04:57:19.383Z,1.60
2019-05-15T04:59:49.735Z,1.70
2019-05-15T05:02:26.672Z,1.50
2019-05-15T05:04:49.469Z,1.13
2019-05-15T05:07:18.915Z,1.27
2019-05-15T05:09:48.975Z,1.37
2019-05-15T05:12:19.239Z,1.30
2019-05-15T05:14:48.457Z,1.70
2019-05-15T05:17:19.511Z,1.80
2019-05-15T05:19:47.867Z,1.63
2019-05-15T05:22:18.747Z,1.50
2019-05-15T05:24:47.830Z,1.67
2019-05-15T05:27:18.275Z,1.93
2019-05-15T05:29:48.034Z,1.90
2019-05-15T05:32:30.527Z,1.63
2019-05-15T05:34:48.325Z,1.70
2019-05-15T05:37:18.471Z,1.43
2019-05-15T05:39:48.345Z,1.27
2019-05-15T05:42:18.489Z,1.30
2019-05-15T05:44:48.850Z,1.43
2019-05-15T05:47:18.320Z,1.20
2019-05-15T05:49:48.846Z,1.43
2019-05-15T05:52:18.547Z,1.27
2019-05-15T05:54:48.992Z,1.37
2019-05-15T05:57:19.372Z,1.60
2019-05-15T05:59:49.000Z,1.50
2019-05-15T06:02:18.611Z,1.30
2019-05-15T06:04:47.966Z,1.33
2019-05-15T06:07:18.527Z,1.67
2019-05-15T06:09:48.650Z,1.80
2019-05-15T06:12:18.847Z,1.57
2019-05-15T06:14:48.502Z,1.77
2019-05-15T06:17:19.076Z,2.13
2019-05-15T06:19:48.148Z,1.30
2019-05-15T06:22:18.799Z,1.30
2019-05-15T06:24:48.511Z,1.23
2019-05-15T06:27:17.188Z,1.27
2019-05-15T06:29:45.700Z,1.30
2019-05-15T06:32:14.205Z,1.10
2019-05-15T06:34:42.709Z,1.10
2019-05-15T06:37:11.209Z,0.70
2019-05-15T06:39:39.728Z,1.10
2019-05-15T06:42:08.805Z,1.10
2019-05-15T06:44:38.844Z,1.10
2019-05-15T06:47:08.161Z,0.90
2019-05-15T06:49:37.826Z,1.30
2019-05-15T06:52:08.659Z,1.00
2019-05-15T06:54:37.776Z,0.90
2019-05-15T06:57:09.111Z,1.03
2019-05-15T06:59:38.956Z,1.10
2019-05-15T07:02:08.141Z,1.00
2019-05-15T07:04:38.340Z,1.07
2019-05-15T07:07:10.674Z,1.10
2019-05-15T07:09:38.002Z,1.10
2019-05-15T07:12:08.012Z,1.10
2019-05-15T07:14:37.952Z,1.33
2019-05-15T07:17:09.173Z,1.03
2019-05-15T07:19:39.258Z,1.20
2019-05-15T07:22:09.191Z,1.20
2019-05-15T07:24:38.369Z,1.47
2019-05-15T07:27:07.970Z,1.10
2019-05-15T07:29:38.553Z,0.93
2019-05-15T07:32:08.031Z,0.90
2019-05-15T07:34:37.913Z,1.30
2019-05-15T07:37:09.604Z,1.20
2019-05-15T07:39:38.189Z,1.17
2019-05-15T07:42:08.597Z,0.87
2019-05-15T07:44:38.884Z,0.80
2019-05-15T07:47:08.848Z,0.97
2019-05-15T07:49:38.803Z,1.00
2019-05-15T07:52:08.640Z,1.20
2019-05-15T07:54:38.336Z,0.87
2019-05-15T07:57:08.873Z,1.20
2019-05-15T07:59:38.678Z,0.60
2019-05-15T08:02:08.391Z,1.00
2019-05-15T08:04:38.055Z,1.13
2019-05-15T08:07:08.977Z,0.90
2019-05-15T08:09:39.149Z,1.20
2019-05-15T08:12:08.257Z,0.90
2019-05-15T08:14:38.747Z,0.90
2019-05-15T08:17:08.700Z,1.00
2019-05-15T08:19:38.387Z,1.00
2019-05-15T08:22:08.912Z,0.90
2019-05-15T08:24:39.207Z,1.20
2019-05-15T08:27:08.339Z,1.00
2019-05-15T08:29:38.355Z,0.93
2019-05-15T08:32:08.419Z,1.10
2019-05-15T08:34:38.644Z,0.97
2019-05-15T08:37:07.951Z,1.00
2019-05-15T08:39:38.153Z,0.90
2019-05-15T08:42:07.995Z,1.00
2019-05-15T08:44:38.657Z,0.90
2019-05-15T08:47:08.171Z,1.20
2019-05-15T08:49:41.055Z,1.10
2019-05-15T08:52:09.990Z,1.20
2019-05-15T08:54:38.291Z,0.87
2019-05-15T08:57:08.431Z,0.93
2019-05-15T08:59:38.108Z,0.70
2019-05-15T09:02:07.898Z,0.90
2019-05-15T09:04:38.658Z,0.73
2019-05-15T09:07:09.165Z,1.07
2019-05-15T09:09:38.342Z,1.40
2019-05-15T09:12:08.260Z,1.10
2019-05-15T09:14:38.020Z,1.13
2019-05-15T09:17:08.695Z,0.80
2019-05-15T09:19:38.817Z,0.90
2019-05-15T09:22:09.145Z,0.90
2019-05-15T09:24:37.987Z,0.80
2019-05-15T09:27:09.806Z,0.90
2019-05-15T09:29:38.076Z,1.30
2019-05-15T09:32:08.594Z,1.00
2019-05-15T09:34:47.777Z,0.70
2019-05-15T09:37:08.606Z,1.40
2019-05-15T09:39:38.114Z,1.10
2019-05-15T09:42:08.427Z,0.67
2019-05-15T09:44:39.034Z,0.98
2019-05-15T09:47:09.126Z,1.03
2019-05-15T09:49:39.127Z,0.60
2019-05-15T09:52:09.008Z,0.70
2019-05-15T09:54:38.694Z,0.90
2019-05-15T09:57:10.819Z,0.90
2019-05-15T09:59:39.065Z,1.17
2019-05-15T10:02:09.207Z,0.80
2019-05-15T10:04:38.977Z,1.00
2019-05-15T10:07:08.296Z,0.83
2019-05-15T10:09:38.896Z,0.73
2019-05-15T10:12:09.069Z,1.10
2019-05-15T10:14:38.609Z,0.87
2019-05-15T10:17:09.187Z,1.00
2019-05-15T10:19:38.117Z,0.77
2019-05-15T10:22:09.522Z,1.03
2019-05-15T10:24:36.974Z,0.80
2019-05-15T10:27:05.597Z,1.20
2019-05-15T10:29:34.100Z,1.23
2019-05-15T10:32:02.661Z,0.93
2019-05-15T10:34:31.190Z,1.20
2019-05-15T10:36:59.749Z,1.53
2019-05-15T10:39:28.900Z,1.50
2019-05-15T10:41:57.526Z,1.43
2019-05-15T10:44:28.429Z,1.30
2019-05-15T10:46:58.502Z,0.97
2019-05-15T10:49:28.213Z,0.97
2019-05-15T10:51:56.877Z,1.37
2019-05-15T10:54:25.475Z,1.20
2019-05-15T10:56:53.996Z,1.10
2019-05-15T10:59:22.510Z,1.57
2019-05-15T11:01:51.005Z,1.50
2019-05-15T11:04:19.596Z,1.17
2019-05-15T11:06:49.045Z,0.60
2019-05-15T11:09:18.565Z,0.73
2019-05-15T11:11:51.192Z,1.30
2019-05-15T11:14:18.433Z,1.57
2019-05-15T11:16:48.602Z,1.17
2019-05-15T11:19:17.367Z,0.63
2019-05-15T11:21:48.494Z,1.00
2019-05-15T11:24:16.471Z,0.87
2019-05-15T11:26:45.294Z,1.30
2019-05-15T11:29:13.829Z,0.73
2019-05-15T11:31:42.350Z,1.57
2019-05-15T11:34:12.154Z,1.43
2019-05-15T11:36:40.609Z,1.23
2019-05-15T11:39:09.217Z,1.30
2019-05-15T11:41:38.646Z,0.80
2019-05-15T11:44:07.308Z,1.30
2019-05-15T11:46:35.837Z,0.90
2019-05-15T11:49:04.352Z,0.73
2019-05-15T11:51:32.837Z,0.60
2019-05-15T11:54:01.324Z,1.57
2019-05-15T11:56:29.916Z,0.90
2019-05-15T11:58:58.416Z,1.30
2019-05-15T12:01:28.798Z,0.97
2019-05-15T12:03:58.561Z,1.10
2019-05-15T12:06:29.232Z,0.70
2019-05-15T12:08:59.162Z,0.83
2019-05-15T12:11:36.614Z,1.20
2019-05-15T12:13:59.672Z,0.90
2019-05-15T12:16:29.042Z,0.80
2019-05-15T12:19:08.435Z,0.90
2019-05-15T12:21:28.680Z,0.80
2019-05-15T12:23:59.112Z,0.80
2019-05-15T12:26:29.206Z,1.23
2019-05-15T12:28:58.952Z,1.27
2019-05-15T12:31:27.780Z,1.03
2019-05-15T12:33:58.469Z,0.70
2019-05-15T12:36:47.291Z,1.10
2019-05-15T12:38:56.814Z,0.90
2019-05-15T13:01:29.577Z,1.27
2019-05-15T13:03:58.501Z,0.70
2019-05-15T13:06:28.555Z,0.97
2019-05-15T13:08:59.444Z,0.70
2019-05-15T13:11:28.466Z,1.00
2019-05-15T13:13:59.107Z,1.03
2019-05-15T13:16:28.147Z,1.27
2019-05-15T13:18:58.841Z,1.03
2019-05-15T13:21:29.470Z,1.00
2019-05-15T13:23:58.629Z,1.10
2019-05-15T13:26:27.492Z,1.00
2019-05-15T13:28:58.350Z,0.73
2019-05-15T13:31:28.452Z,1.03
2019-05-15T13:33:58.753Z,0.83
2019-05-15T13:36:28.852Z,1.13
2019-05-15T13:38:57.918Z,0.83
2019-05-15T13:41:28.171Z,0.90
2019-05-15T13:43:58.405Z,0.93
2019-05-15T13:46:29.091Z,1.10
2019-05-15T13:48:59.443Z,0.93
2019-05-15T13:51:29.015Z,1.03
2019-05-15T13:53:57.761Z,1.33
2019-05-15T13:56:26.251Z,0.87
2019-05-15T13:58:54.792Z,0.80
2019-05-15T14:01:23.317Z,0.80
2019-05-15T14:03:51.864Z,1.63
2019-05-15T14:06:20.370Z,1.20
2019-05-15T14:08:49.007Z,1.00
2019-05-15T14:11:21.491Z,2.60
2019-05-15T14:13:48.601Z,0.60
2019-05-15T14:16:19.221Z,0.80
2019-05-15T14:18:48.012Z,1.10
2019-05-15T14:21:18.441Z,1.10
2019-05-15T14:23:47.969Z,0.93
2019-05-15T14:26:20.263Z,1.57
2019-05-15T14:28:48.071Z,1.20
2019-05-15T14:31:18.291Z,1.10
2019-05-15T14:33:48.732Z,1.40
2019-05-15T14:36:18.435Z,1.17
2019-05-15T14:38:48.502Z,1.10
2019-05-15T14:41:18.964Z,0.90
2019-05-15T14:43:48.414Z,0.87
2019-05-15T14:46:18.562Z,1.17
2019-05-15T14:48:49.109Z,0.57
2019-05-15T14:51:19.276Z,1.10
2019-05-15T14:53:48.995Z,0.70
2019-05-15T14:56:18.556Z,1.10
2019-05-15T14:58:48.017Z,1.33
2019-05-15T15:01:18.491Z,0.77
2019-05-15T15:03:48.800Z,1.00
2019-05-15T15:06:18.156Z,1.07
2019-05-15T15:08:48.660Z,1.00
2019-05-15T15:11:17.933Z,1.00
2019-05-15T15:13:46.544Z,1.00
2019-05-15T15:16:15.064Z,0.70
2019-05-15T15:18:43.887Z,1.00
2019-05-15T15:21:12.528Z,1.00
2019-05-15T15:23:41.091Z,1.00
2019-05-15T15:26:09.668Z,1.37
2019-05-15T15:28:40.250Z,1.10
2019-05-15T15:31:08.465Z,1.10
2019-05-15T15:33:39.204Z,0.83
2019-05-15T15:36:08.833Z,1.20
2019-05-15T15:38:43.383Z,1.00
2019-05-15T15:41:08.549Z,1.10
2019-05-15T15:43:38.711Z,1.20
2019-05-15T15:46:08.594Z,1.03
2019-05-15T15:48:39.051Z,0.77
2019-05-15T15:51:09.153Z,0.70
2019-05-15T15:53:39.077Z,0.80
2019-05-15T15:56:10.540Z,1.07
2019-05-15T15:58:38.088Z,1.20
2019-05-15T16:01:08.927Z,0.70
2019-05-15T16:03:38.029Z,0.80
2019-05-15T16:06:06.613Z,1.30
2019-05-15T16:08:48.105Z,0.50
2019-05-15T16:11:05.403Z,1.27
2019-05-15T16:13:33.911Z,0.70
2019-05-15T16:16:02.464Z,0.90
2019-05-15T16:18:30.964Z,1.43
2019-05-15T16:20:59.481Z,1.00
2019-05-15T16:23:28.506Z,1.00
2019-05-15T16:25:58.250Z,1.50
2019-05-15T16:28:28.965Z,0.90
2019-05-15T16:30:58.580Z,0.80
2019-05-15T16:33:28.351Z,0.80
2019-05-15T16:35:58.069Z,0.73
2019-05-15T16:38:28.399Z,1.00
2019-05-15T16:40:58.240Z,0.70
2019-05-15T16:43:28.600Z,0.70
2019-05-15T16:45:58.627Z,0.97
2019-05-15T16:48:29.390Z,0.87
2019-05-15T16:50:58.163Z,0.90
2019-05-15T16:53:28.821Z,0.90
2019-05-15T16:55:58.635Z,0.63
2019-05-15T16:58:29.561Z,0.50
2019-05-15T17:00:58.576Z,0.70
2019-05-15T17:03:28.917Z,0.90
2019-05-15T17:05:58.817Z,1.20
2019-05-15T17:08:28.892Z,0.80
2019-05-15T17:10:58.631Z,0.90
2019-05-15T17:13:28.761Z,0.70
2019-05-15T17:15:58.428Z,0.97
2019-05-15T17:18:27.209Z,0.73
2019-05-15T17:20:55.757Z,0.70
2019-05-15T17:23:24.528Z,1.00
2019-05-15T17:25:53.294Z,0.60
2019-05-15T17:28:21.809Z,1.20
2019-05-15T17:30:50.313Z,1.10
2019-05-15T17:33:18.805Z,0.80
2019-05-15T17:35:48.716Z,0.50
2019-05-15T17:38:18.247Z,0.50
2019-05-15T17:40:48.412Z,0.60
2019-05-15T17:43:18.304Z,1.00
2019-05-15T17:45:48.235Z,0.87
2019-05-15T17:48:19.371Z,1.40
2019-05-15T17:50:51.777Z,0.83
2019-05-15T17:53:18.213Z,1.10
2019-05-15T17:55:47.938Z,0.63
2019-05-15T17:58:16.614Z,0.97
2019-05-15T18:00:45.293Z,0.87
2019-05-15T18:03:13.836Z,0.87
2019-05-15T18:05:42.359Z,0.93
2019-05-15T18:08:10.880Z,0.83
2019-05-15T18:10:39.404Z,0.80
2019-05-15T18:13:08.898Z,0.73
2019-05-15T18:15:38.536Z,0.80
2019-05-15T18:18:09.422Z,0.93
2019-05-15T18:20:38.403Z,0.63
2019-05-15T18:23:08.443Z,0.63
2019-05-15T18:25:38.439Z,0.90
2019-05-15T18:28:08.551Z,0.90
2019-05-15T18:30:38.854Z,0.80
2019-05-15T18:33:08.726Z,1.20
2019-05-15T18:35:38.593Z,0.60
2019-05-15T18:38:08.593Z,0.93
2019-05-15T18:40:38.417Z,1.03
2019-05-15T18:43:09.780Z,0.87
2019-05-15T18:45:38.353Z,0.47
2019-05-15T18:48:07.007Z,0.73
2019-05-15T18:50:37.728Z,0.83
2019-05-15T18:53:08.746Z,1.00
2019-05-15T18:55:38.585Z,0.90
2019-05-15T18:58:08.334Z,0.80
2019-05-15T19:00:39.696Z,0.67
2019-05-15T19:03:19.224Z,0.80
2019-05-15T19:05:38.650Z,0.70
2019-05-15T19:08:08.436Z,0.43
2019-05-15T19:10:38.638Z,0.93
2019-05-15T19:13:08.547Z,1.10
2019-05-15T19:15:38.069Z,0.90
2019-05-15T19:18:08.036Z,0.90
2019-05-15T19:20:38.855Z,0.67
2019-05-15T19:23:08.078Z,0.90
2019-05-15T19:25:36.865Z,1.27
2019-05-15T19:28:05.395Z,1.00
2019-05-15T19:30:34.061Z,0.97
2019-05-15T19:33:02.730Z,0.83
2019-05-15T19:35:31.324Z,1.07
2019-05-15T19:37:59.987Z,1.40
2019-05-15T19:40:28.724Z,1.23
2019-05-15T19:42:59.012Z,0.90
2019-05-15T19:45:28.350Z,1.03
2019-05-15T19:47:58.792Z,1.00
2019-05-15T19:50:28.688Z,1.20
2019-05-15T19:52:59.090Z,0.90
2019-05-15T19:55:28.191Z,1.30
2019-05-15T19:57:58.759Z,1.40
2019-05-15T20:00:28.579Z,1.00
2019-05-15T20:02:58.089Z,1.30
2019-05-15T20:05:28.959Z,0.90
2019-05-15T20:07:58.762Z,0.90
2019-05-15T20:10:29.308Z,1.37
2019-05-15T20:12:58.524Z,1.30
2019-05-15T20:15:28.514Z,1.57
2019-05-15T20:17:57.317Z,1.30
2019-05-15T20:20:28.038Z,1.30
2019-05-15T20:22:59.370Z,1.00
2019-05-15T20:25:27.780Z,1.70
2019-05-15T20:27:56.997Z,1.00
2019-05-15T20:30:25.619Z,1.07
2019-05-15T20:32:54.134Z,1.60
2019-05-15T20:35:22.660Z,1.20
2019-05-15T20:37:51.509Z,1.40
2019-05-15T20:40:20.036Z,1.13
2019-05-15T20:42:48.866Z,1.40
2019-05-15T20:45:18.494Z,1.70
2019-05-15T20:47:47.156Z,1.13
2019-05-15T20:50:15.679Z,1.50
2019-05-15T20:52:44.245Z,1.13
2019-05-15T20:55:13.144Z,1.30
2019-05-15T20:57:41.696Z,1.03
2019-05-15T21:00:12.816Z,1.03
2019-05-15T21:02:41.337Z,1.20
2019-05-15T21:05:09.843Z,1.47
2019-05-15T21:07:42.739Z,1.23
2019-05-15T21:10:10.257Z,1.03
2019-05-15T21:12:41.040Z,1.30
2019-05-15T21:15:09.999Z,1.27
2019-05-15T21:17:39.399Z,1.10
2019-05-15T21:20:09.594Z,1.30
2019-05-15T21:22:40.323Z,1.13
2019-05-15T21:25:10.770Z,0.80
2019-05-15T21:27:42.384Z,1.03
2019-05-15T21:30:09.549Z,1.00
2019-05-15T21:32:38.396Z,1.10
2019-05-15T21:35:09.095Z,1.30
2019-05-15T21:37:38.918Z,1.20
2019-05-15T21:40:08.706Z,1.30
2019-05-15T21:42:39.000Z,1.30
2019-05-15T21:45:13.932Z,1.10
2019-05-15T21:47:38.771Z,1.60
2019-05-15T21:50:08.089Z,1.40
2019-05-15T21:52:38.961Z,1.30
2019-05-15T21:55:09.206Z,1.03
2019-05-15T21:57:40.076Z,1.37
2019-05-15T22:00:12.788Z,1.50
2019-05-15T22:02:41.309Z,1.40
2019-05-15T22:05:09.858Z,1.20
2019-05-15T22:07:38.910Z,1.37
2019-05-15T22:10:10.414Z,1.30
2019-05-15T22:12:37.815Z,1.40
2019-05-15T22:15:06.822Z,1.20
2019-05-15T22:17:38.723Z,1.23
2019-05-15T22:20:08.661Z,1.20
2019-05-15T22:22:37.492Z,1.07
2019-05-15T22:25:08.541Z,1.30
2019-05-15T22:27:38.296Z,1.07
2019-05-15T22:30:08.247Z,1.23
2019-05-15T22:32:41.243Z,1.30
2019-05-15T22:35:13.385Z,1.17
2019-05-15T22:37:38.783Z,1.10
2019-05-15T22:40:08.915Z,1.03
2019-05-15T22:42:39.058Z,1.00
2019-05-15T22:45:11.599Z,1.30
2019-05-15T22:47:39.157Z,1.30
2019-05-15T22:50:08.460Z,1.30
2019-05-15T22:52:38.973Z,1.63
2019-05-15T22:55:07.327Z,1.20
2019-05-15T22:57:35.834Z,1.17
2019-05-15T23:00:04.682Z,1.20
2019-05-15T23:02:33.660Z,1.27
2019-05-15T23:05:02.165Z,1.30
2019-05-15T23:07:30.667Z,1.00
2019-05-15T23:09:59.415Z,1.90
2019-05-15T23:12:28.738Z,1.30
2019-05-15T23:14:57.904Z,1.33
2019-05-15T23:17:27.728Z,1.57
2019-05-15T23:19:58.195Z,1.37
2019-05-15T23:22:27.923Z,1.60
2019-05-15T23:24:58.506Z,1.23
2019-05-15T23:27:28.728Z,1.37
2019-05-15T23:29:58.221Z,1.43
2019-05-15T23:32:28.836Z,1.53
2019-05-15T23:34:58.408Z,1.50
2019-05-15T23:37:28.084Z,1.37
2019-05-15T23:39:57.995Z,1.43
2019-05-15T23:42:28.991Z,1.23
2019-05-15T23:44:56.905Z,1.17
2019-05-15T23:47:25.415Z,1.33
2019-05-15T23:49:53.954Z,1.40
2019-05-15T23:52:22.469Z,1.50
2019-05-15T23:54:50.988Z,1.70
2019-05-15T23:57:19.497Z,1.40
2019-05-15T23:59:48.017Z,1.27
